sensor_id;sensor_type;location;lat;lon;timestamp;pressure;altitude;pressure_sealevel;temperature;humidity
44663;BME280;30381;52.754;18.258;2023-03-23T14:24:30;99735.55;;;16.37;98.47
44663;BME280;30381;52.754;18.258;2023-03-23T14:27:11;99733.81;;;16.35;98.73
44663;BME280;30381;52.754;18.258;2023-03-23T14:29:39;99733.33;;;16.36;98.94
44663;BME280;30381;52.754;18.258;2023-03-23T14:32:09;99728.02;;;16.37;98.83
44663;BME280;30381;52.754;18.258;2023-03-23T14:34:38;99725.34;;;16.33;98.88
44663;BME280;30381;52.754;18.258;2023-03-23T14:37:13;99728.95;;;16.28;99.09
44663;BME280;30381;52.754;18.258;2023-03-23T14:40:21;99724.92;;;16.17;99.30
44663;BME280;30381;52.754;18.258;2023-03-23T14:43:24;99725.88;;;16.04;99.62
44663;BME280;30381;52.754;18.258;2023-03-23T14:46:12;99716.88;;;15.89;99.79
44663;BME280;30381;52.754;18.258;2023-03-23T14:49:01;99719.95;;;15.80;100.00
44663;BME280;30381;52.754;18.258;2023-03-23T14:51:31;99722.05;;;15.74;100.00
44663;BME280;30381;52.754;18.258;2023-03-23T14:53:59;99719.49;;;15.68;100.00
44663;BME280;30381;52.754;18.258;2023-03-23T14:56:34;99717.06;;;15.61;100.00
44663;BME280;30381;52.754;18.258;2023-03-23T14:59:05;99711.75;;;15.54;100.00
44663;BME280;30381;52.754;18.258;2023-03-23T15:02:14;99708.09;;;15.43;100.00
44663;BME280;30381;52.754;18.258;2023-03-23T15:05:03;99705.24;;;15.39;100.00
44663;BME280;30381;52.754;18.258;2023-03-23T15:07:35;99715.14;;;15.31;100.00
44663;BME280;30381;52.754;18.258;2023-03-23T15:10:07;99717.81;;;15.26;100.00
44663;BME280;30381;52.754;18.258;2023-03-23T15:12:53;99724.95;;;15.20;100.00
44663;BME280;30381;52.754;18.258;2023-03-23T15:15:28;99723.85;;;15.16;100.00
44663;BME280;30381;52.754;18.258;2023-03-23T15:18:30;99717.48;;;15.14;100.00
44663;BME280;30381;52.754;18.258;2023-03-23T15:21:11;99716.60;;;15.15;100.00
44663;BME280;30381;52.754;18.258;2023-03-23T15:23:42;99716.98;;;15.17;100.00
44663;BME280;30381;52.754;18.258;2023-03-23T15:26:41;99709.95;;;15.17;100.00
44663;BME280;30381;52.754;18.258;2023-03-23T15:29:18;99719.42;;;15.16;100.00
44663;BME280;30381;52.754;18.258;2023-03-23T15:31:54;99722.37;;;15.16;100.00
44663;BME280;30381;52.754;18.258;2023-03-23T15:34:34;99722.79;;;15.13;100.00
44663;BME280;30381;52.754;18.258;2023-03-23T15:37:25;99718.68;;;15.08;100.00
44663;BME280;30381;52.754;18.258;2023-03-23T15:40:18;99718.25;;;15.03;100.00
44663;BME280;30381;52.754;18.258;2023-03-23T15:45:26;99702.86;;;15.01;100.00
44663;BME280;30381;52.754;18.258;2023-03-23T15:48:14;99698.32;;;14.97;100.00
44663;BME280;30381;52.754;18.258;2023-03-23T15:50:46;99704.59;;;14.91;100.00
44663;BME280;30381;52.754;18.258;2023-03-23T15:53:32;99708.86;;;14.87;100.00
44663;BME280;30381;52.754;18.258;2023-03-23T15:56:03;99711.77;;;14.84;100.00
44663;BME280;30381;52.754;18.258;2023-03-23T15:58:35;99716.34;;;14.80;100.00
44663;BME280;30381;52.754;18.258;2023-03-23T16:03:49;99724.77;;;14.79;100.00
44663;BME280;30381;52.754;18.258;2023-03-23T16:06:38;99725.58;;;14.81;100.00
44663;BME280;30381;52.754;18.258;2023-03-23T16:57:14;99761.38;;;13.80;100.00
44663;BME280;30381;52.754;18.258;2023-03-23T16:59:42;99763.95;;;13.77;100.00
44663;BME280;30381;52.754;18.258;2023-03-23T17:02:10;99765.21;;;13.74;100.00
44663;BME280;30381;52.754;18.258;2023-03-23T17:04:42;99768.58;;;13.71;100.00
44663;BME280;30381;52.754;18.258;2023-03-23T17:07:09;99770.02;;;13.68;100.00
44663;BME280;30381;52.754;18.258;2023-03-23T17:09:35;99776.42;;;13.66;100.00
44663;BME280;30381;52.754;18.258;2023-03-23T17:12:01;99770.51;;;13.64;100.00
44663;BME280;30381;52.754;18.258;2023-03-23T17:14:30;99768.07;;;13.61;100.00
44663;BME280;30381;52.754;18.258;2023-03-23T17:16:56;99770.96;;;13.59;100.00
44663;BME280;30381;52.754;18.258;2023-03-23T17:19:28;99768.36;;;13.57;100.00
44663;BME280;30381;52.754;18.258;2023-03-23T17:22:15;99773.30;;;13.53;100.00
44663;BME280;30381;52.754;18.258;2023-03-23T17:24:44;99778.30;;;13.51;100.00
44663;BME280;30381;52.754;18.258;2023-03-23T17:27:16;99785.05;;;13.49;100.00
44663;BME280;30381;52.754;18.258;2023-03-23T17:33:01;99778.38;;;13.45;100.00
44663;BME280;30381;52.754;18.258;2023-03-23T17:35:28;99775.13;;;13.43;100.00
44663;BME280;30381;52.754;18.258;2023-03-23T17:37:54;99772.13;;;13.41;100.00
44663;BME280;30381;52.754;18.258;2023-03-23T17:40:20;99773.07;;;13.39;100.00
44663;BME280;30381;52.754;18.258;2023-03-23T17:42:46;99777.63;;;13.38;100.00
44663;BME280;30381;52.754;18.258;2023-03-23T17:45:13;99777.41;;;13.35;100.00
44663;BME280;30381;52.754;18.258;2023-03-23T17:47:43;99781.65;;;13.32;100.00
44663;BME280;30381;52.754;18.258;2023-03-23T17:50:12;99785.79;;;13.30;100.00
44663;BME280;30381;52.754;18.258;2023-03-23T17:52:41;99790.67;;;13.28;100.00
44663;BME280;30381;52.754;18.258;2023-03-23T17:55:09;99799.68;;;13.26;100.00
44663;BME280;30381;52.754;18.258;2023-03-23T17:57:36;99799.25;;;13.25;100.00
44663;BME280;30381;52.754;18.258;2023-03-23T18:00:03;99797.47;;;13.23;100.00
44663;BME280;30381;52.754;18.258;2023-03-23T18:02:34;99800.88;;;13.19;100.00
44663;BME280;30381;52.754;18.258;2023-03-23T18:05:01;99803.10;;;13.14;100.00
44663;BME280;30381;52.754;18.258;2023-03-23T18:07:27;99801.36;;;13.11;100.00
44663;BME280;30381;52.754;18.258;2023-03-23T18:09:58;99804.23;;;13.07;100.00
44663;BME280;30381;52.754;18.258;2023-03-23T18:12:24;99788.09;;;13.03;100.00
44663;BME280;30381;52.754;18.258;2023-03-23T18:14:50;99786.70;;;12.97;100.00
44663;BME280;30381;52.754;18.258;2023-03-23T18:17:16;99793.90;;;12.89;100.00
44663;BME280;30381;52.754;18.258;2023-03-23T18:19:43;99800.03;;;12.80;100.00
44663;BME280;30381;52.754;18.258;2023-03-23T18:22:09;99811.10;;;12.73;100.00
44663;BME280;30381;52.754;18.258;2023-03-23T18:24:35;99809.02;;;12.65;100.00
44663;BME280;30381;52.754;18.258;2023-03-23T18:27:02;99812.52;;;12.59;100.00
44663;BME280;30381;52.754;18.258;2023-03-23T18:29:28;99811.32;;;12.53;100.00
44663;BME280;30381;52.754;18.258;2023-03-23T18:31:54;99812.13;;;12.48;100.00
44663;BME280;30381;52.754;18.258;2023-03-23T18:34:20;99799.58;;;12.44;100.00
44663;BME280;30381;52.754;18.258;2023-03-23T18:36:46;99805.27;;;12.41;100.00
44663;BME280;30381;52.754;18.258;2023-03-23T18:39:12;99815.85;;;12.39;100.00
44663;BME280;30381;52.754;18.258;2023-03-23T18:41:41;99814.15;;;12.38;100.00
44663;BME280;30381;52.754;18.258;2023-03-23T18:44:08;99811.92;;;12.35;100.00
44663;BME280;30381;52.754;18.258;2023-03-23T18:46:35;99819.18;;;12.32;100.00
44663;BME280;30381;52.754;18.258;2023-03-23T18:49:02;99820.79;;;12.28;100.00
44663;BME280;30381;52.754;18.258;2023-03-23T18:51:28;99812.21;;;12.22;100.00
44663;BME280;30381;52.754;18.258;2023-03-23T18:53:55;99810.84;;;12.18;100.00
44663;BME280;30381;52.754;18.258;2023-03-23T18:56:21;99809.08;;;12.12;100.00
44663;BME280;30381;52.754;18.258;2023-03-23T18:58:50;99811.02;;;12.07;100.00
44663;BME280;30381;52.754;18.258;2023-03-23T19:01:17;99813.54;;;12.02;100.00
44663;BME280;30381;52.754;18.258;2023-03-23T19:03:44;99819.27;;;11.97;100.00
44663;BME280;30381;52.754;18.258;2023-03-23T19:08:40;99825.12;;;11.87;100.00
44663;BME280;30381;52.754;18.258;2023-03-23T19:11:06;99834.90;;;11.83;100.00
44663;BME280;30381;52.754;18.258;2023-03-23T19:13:33;99836.88;;;11.80;100.00
44663;BME280;30381;52.754;18.258;2023-03-23T19:15:59;99851.10;;;11.76;100.00
44663;BME280;30381;52.754;18.258;2023-03-23T19:18:25;99850.38;;;11.73;100.00
44663;BME280;30381;52.754;18.258;2023-03-23T19:20:52;99842.30;;;11.69;100.00
44663;BME280;30381;52.754;18.258;2023-03-23T19:23:20;99826.48;;;11.65;100.00
44663;BME280;30381;52.754;18.258;2023-03-23T19:25:47;99831.33;;;11.62;100.00
44663;BME280;30381;52.754;18.258;2023-03-23T19:28:13;99835.86;;;11.58;100.00
44663;BME280;30381;52.754;18.258;2023-03-23T19:30:48;99832.37;;;11.54;100.00
44663;BME280;30381;52.754;18.258;2023-03-23T19:33:15;99825.13;;;11.50;100.00
44663;BME280;30381;52.754;18.258;2023-03-23T19:35:42;99813.25;;;11.46;100.00
44663;BME280;30381;52.754;18.258;2023-03-23T19:38:09;99809.21;;;11.42;100.00
44663;BME280;30381;52.754;18.258;2023-03-23T19:40:36;99804.44;;;11.39;100.00
44663;BME280;30381;52.754;18.258;2023-03-23T19:43:03;99800.40;;;11.34;100.00
44663;BME280;30381;52.754;18.258;2023-03-23T19:45:31;99803.06;;;11.29;100.00
44663;BME280;30381;52.754;18.258;2023-03-23T19:47:57;99810.23;;;11.24;100.00
44663;BME280;30381;52.754;18.258;2023-03-23T19:50:24;99814.14;;;11.20;100.00
44663;BME280;30381;52.754;18.258;2023-03-23T19:52:50;99823.73;;;11.15;100.00
44663;BME280;30381;52.754;18.258;2023-03-23T19:55:16;99832.95;;;11.11;100.00
44663;BME280;30381;52.754;18.258;2023-03-23T19:57:42;99823.77;;;11.07;100.00
44663;BME280;30381;52.754;18.258;2023-03-23T20:00:09;99830.04;;;11.04;100.00
44663;BME280;30381;52.754;18.258;2023-03-23T20:02:37;99836.33;;;11.02;100.00
44663;BME280;30381;52.754;18.258;2023-03-23T20:05:04;99843.41;;;10.99;100.00
44663;BME280;30381;52.754;18.258;2023-03-23T20:07:30;99848.10;;;10.98;100.00
44663;BME280;30381;52.754;18.258;2023-03-23T20:09:56;99850.48;;;10.97;100.00
44663;BME280;30381;52.754;18.258;2023-03-23T20:12:22;99856.46;;;10.96;100.00
44663;BME280;30381;52.754;18.258;2023-03-23T20:14:48;99862.85;;;10.95;100.00
44663;BME280;30381;52.754;18.258;2023-03-23T20:17:15;99865.21;;;10.94;100.00
44663;BME280;30381;52.754;18.258;2023-03-23T20:19:41;99859.36;;;10.93;100.00
44663;BME280;30381;52.754;18.258;2023-03-23T20:22:08;99861.50;;;10.90;100.00
44663;BME280;30381;52.754;18.258;2023-03-23T20:24:34;99866.02;;;10.88;100.00
44663;BME280;30381;52.754;18.258;2023-03-23T20:27:00;99866.73;;;10.84;100.00
44663;BME280;30381;52.754;18.258;2023-03-23T20:29:28;99865.08;;;10.80;100.00
44663;BME280;30381;52.754;18.258;2023-03-23T20:31:56;99861.52;;;10.76;100.00
44663;BME280;30381;52.754;18.258;2023-03-23T20:34:23;99855.37;;;10.72;100.00
44663;BME280;30381;52.754;18.258;2023-03-23T20:36:57;99861.76;;;10.68;100.00
44663;BME280;30381;52.754;18.258;2023-03-23T20:39:33;99862.70;;;10.64;100.00
44663;BME280;30381;52.754;18.258;2023-03-23T20:42:02;99862.77;;;10.60;100.00
44663;BME280;30381;52.754;18.258;2023-03-23T20:44:31;99865.23;;;10.59;100.00
44663;BME280;30381;52.754;18.258;2023-03-23T20:47:00;99871.81;;;10.58;100.00
44663;BME280;30381;52.754;18.258;2023-03-23T20:49:32;99880.60;;;10.59;100.00
44663;BME280;30381;52.754;18.258;2023-03-23T20:52:03;99886.95;;;10.62;100.00
44663;BME280;30381;52.754;18.258;2023-03-23T20:54:30;99889.31;;;10.66;100.00
44663;BME280;30381;52.754;18.258;2023-03-23T20:56:56;99890.89;;;10.67;100.00
44663;BME280;30381;52.754;18.258;2023-03-23T20:59:25;99892.18;;;10.66;100.00
44663;BME280;30381;52.754;18.258;2023-03-23T21:01:52;99895.30;;;10.64;100.00
44663;BME280;30381;52.754;18.258;2023-03-23T21:04:20;99904.70;;;10.64;100.00
44663;BME280;30381;52.754;18.258;2023-03-23T21:06:48;99907.48;;;10.61;100.00
44663;BME280;30381;52.754;18.258;2023-03-23T21:09:18;99905.09;;;10.60;100.00
44663;BME280;30381;52.754;18.258;2023-03-23T21:11:45;99903.92;;;10.58;100.00
44663;BME280;30381;52.754;18.258;2023-03-23T21:14:13;99905.40;;;10.54;100.00
44663;BME280;30381;52.754;18.258;2023-03-23T21:16:39;99904.95;;;10.49;100.00
44663;BME280;30381;52.754;18.258;2023-03-23T21:19:06;99908.06;;;10.43;100.00
44663;BME280;30381;52.754;18.258;2023-03-23T21:21:32;99904.80;;;10.36;100.00
44663;BME280;30381;52.754;18.258;2023-03-23T21:23:59;99904.55;;;10.29;100.00
44663;BME280;30381;52.754;18.258;2023-03-23T21:26:27;99900.02;;;10.22;100.00
44663;BME280;30381;52.754;18.258;2023-03-23T21:28:54;99900.61;;;10.15;100.00
44663;BME280;30381;52.754;18.258;2023-03-23T21:31:25;99903.23;;;10.09;100.00
44663;BME280;30381;52.754;18.258;2023-03-23T21:33:56;99899.76;;;10.01;100.00
44663;BME280;30381;52.754;18.258;2023-03-23T21:36:23;99901.34;;;9.94;100.00
44663;BME280;30381;52.754;18.258;2023-03-23T21:38:50;99900.32;;;9.86;100.00
44663;BME280;30381;52.754;18.258;2023-03-23T21:41:16;99901.63;;;9.81;100.00
44663;BME280;30381;52.754;18.258;2023-03-23T21:43:42;99898.04;;;9.75;100.00
44663;BME280;30381;52.754;18.258;2023-03-23T21:46:11;99895.38;;;9.69;100.00
44663;BME280;30381;52.754;18.258;2023-03-23T21:48:47;99900.21;;;9.65;100.00
44663;BME280;30381;52.754;18.258;2023-03-23T21:51:21;99897.44;;;9.60;100.00
44663;BME280;30381;52.754;18.258;2023-03-23T21:53:47;99898.02;;;9.59;100.00
44663;BME280;30381;52.754;18.258;2023-03-23T21:56:15;99898.36;;;9.58;100.00
44663;BME280;30381;52.754;18.258;2023-03-23T21:58:41;99897.01;;;9.57;100.00
44663;BME280;30381;52.754;18.258;2023-03-23T22:01:08;99894.41;;;9.57;100.00
44663;BME280;30381;52.754;18.258;2023-03-23T22:03:35;99896.13;;;9.55;100.00
44663;BME280;30381;52.754;18.258;2023-03-23T22:06:17;99899.14;;;9.52;100.00
44663;BME280;30381;52.754;18.258;2023-03-23T22:08:44;99900.52;;;9.46;100.00
44663;BME280;30381;52.754;18.258;2023-03-23T22:11:19;99898.19;;;9.42;100.00
44663;BME280;30381;52.754;18.258;2023-03-23T22:13:46;99898.39;;;9.38;100.00
44663;BME280;30381;52.754;18.258;2023-03-23T22:16:15;99899.67;;;9.37;100.00
44663;BME280;30381;52.754;18.258;2023-03-23T22:18:45;99902.25;;;9.36;100.00
44663;BME280;30381;52.754;18.258;2023-03-23T22:21:12;99901.24;;;9.34;100.00
44663;BME280;30381;52.754;18.258;2023-03-23T22:23:39;99902.95;;;9.34;100.00
44663;BME280;30381;52.754;18.258;2023-03-23T22:26:06;99906.23;;;9.34;100.00
44663;BME280;30381;52.754;18.258;2023-03-23T22:28:33;99902.88;;;9.33;100.00
44663;BME280;30381;52.754;18.258;2023-03-23T22:31:04;99896.63;;;9.35;100.00
44663;BME280;30381;52.754;18.258;2023-03-23T22:33:31;99895.66;;;9.38;100.00
44663;BME280;30381;52.754;18.258;2023-03-23T22:35:58;99897.39;;;9.39;100.00
44663;BME280;30381;52.754;18.258;2023-03-23T22:38:32;99905.34;;;9.41;100.00
44663;BME280;30381;52.754;18.258;2023-03-23T22:40:59;99910.85;;;9.42;100.00
44663;BME280;30381;52.754;18.258;2023-03-23T22:43:29;99908.95;;;9.41;100.00
44663;BME280;30381;52.754;18.258;2023-03-23T22:45:55;99911.11;;;9.40;100.00
44663;BME280;30381;52.754;18.258;2023-03-23T22:48:24;99908.17;;;9.39;100.00
44663;BME280;30381;52.754;18.258;2023-03-23T22:50:51;99910.87;;;9.39;100.00
44663;BME280;30381;52.754;18.258;2023-03-23T22:53:18;99909.44;;;9.40;100.00
44663;BME280;30381;52.754;18.258;2023-03-23T22:55:47;99914.29;;;9.41;100.00
44663;BME280;30381;52.754;18.258;2023-03-23T22:58:14;99914.20;;;9.39;100.00
44663;BME280;30381;52.754;18.258;2023-03-23T23:00:46;99917.95;;;9.37;100.00
44663;BME280;30381;52.754;18.258;2023-03-23T23:03:12;99919.55;;;9.32;100.00
44663;BME280;30381;52.754;18.258;2023-03-23T23:05:47;99920.42;;;9.24;100.00
44663;BME280;30381;52.754;18.258;2023-03-23T23:08:14;99929.39;;;9.13;100.00
44663;BME280;30381;52.754;18.258;2023-03-23T23:10:42;99928.95;;;9.02;100.00
44663;BME280;30381;52.754;18.258;2023-03-23T23:13:09;99927.30;;;8.92;100.00
44663;BME280;30381;52.754;18.258;2023-03-23T23:15:37;99925.05;;;8.83;100.00
44663;BME280;30381;52.754;18.258;2023-03-23T23:18:04;99926.23;;;8.76;100.00
44663;BME280;30381;52.754;18.258;2023-03-23T23:20:32;99924.58;;;8.68;100.00
44663;BME280;30381;52.754;18.258;2023-03-23T23:23:00;99924.70;;;8.60;100.00
44663;BME280;30381;52.754;18.258;2023-03-23T23:25:30;99925.27;;;8.53;100.00
44663;BME280;30381;52.754;18.258;2023-03-23T23:27:58;99925.33;;;8.46;100.00
44663;BME280;30381;52.754;18.258;2023-03-23T23:30:25;99923.24;;;8.39;100.00
44663;BME280;30381;52.754;18.258;2023-03-23T23:32:52;99920.31;;;8.31;100.00
44663;BME280;30381;52.754;18.258;2023-03-23T23:35:19;99916.42;;;8.24;100.00
44663;BME280;30381;52.754;18.258;2023-03-23T23:37:46;99916.27;;;8.17;100.00
44663;BME280;30381;52.754;18.258;2023-03-23T23:40:13;99914.08;;;8.10;100.00
44663;BME280;30381;52.754;18.258;2023-03-23T23:42:45;99911.73;;;8.01;100.00
44663;BME280;30381;52.754;18.258;2023-03-23T23:45:12;99917.05;;;7.93;100.00
44663;BME280;30381;52.754;18.258;2023-03-23T23:47:39;99921.35;;;7.86;100.00
44663;BME280;30381;52.754;18.258;2023-03-23T23:50:06;99919.70;;;7.80;100.00
44663;BME280;30381;52.754;18.258;2023-03-23T23:52:34;99914.35;;;7.74;100.00
44663;BME280;30381;52.754;18.258;2023-03-23T23:55:02;99907.63;;;7.67;100.00
44663;BME280;30381;52.754;18.258;2023-03-23T23:57:28;99904.95;;;7.61;100.00
44663;BME280;30381;52.754;18.258;2023-03-23T23:59:54;99902.10;;;7.57;100.00
